LICB/CIY METAR and TAF weather

Enter ICAO airport designator
Station Type Date Time Source
LICB METAR 2019/12/10 02:50 UTC NOAA

LICB 100250Z AUTO VRB02KT 9999 BKN120/// 07/06 Q1010


Station Type Date Time Source
LICB Decoded METAR 2019/12/10 02:50 UTC NOAA

Comiso As Usaf , Italy (LICB) 36-56N 014-36E
Dec 09, 2019 - 09:50 PM EST / 2019.12.10 0250 UTC
Wind: Variable at 2 MPH (2 KT):0
Visibility: greater than 7 mile(s):0
Sky conditions: mostly cloudy
Temperature: 44 F (7 C)
Dew Point: 42 F (6 C)
Relative Humidity: 93%
Pressure (altimeter): 29.83 in. Hg (1010 hPa)
ob: LICB 100250Z AUTO VRB02KT 9999 BKN120/// 07/06 Q1010
cycle: 3

Station Type Date Time Source
LICB TAF UTC NOAA

Error!

Example: see airport list